sensor_id;sensor_type;location;lat;lon;timestamp;P1;durP1;ratioP1;P2;durP2;ratioP2
9364;SDS011;4722;49.340;9.800;2023-05-10T00:02:00;1.30;;;0.85;;
9364;SDS011;4722;49.340;9.800;2023-05-10T00:04:27;1.23;;;0.77;;
9364;SDS011;4722;49.340;9.800;2023-05-10T00:06:53;1.15;;;0.68;;
9364;SDS011;4722;49.340;9.800;2023-05-10T00:09:19;1.15;;;0.60;;
9364;SDS011;4722;49.340;9.800;2023-05-10T00:11:44;1.20;;;0.40;;
9364;SDS011;4722;49.340;9.800;2023-05-10T00:14:11;1.10;;;0.50;;
9364;SDS011;4722;49.340;9.800;2023-05-10T00:16:37;1.33;;;0.50;;
9364;SDS011;4722;49.340;9.800;2023-05-10T00:19:03;1.38;;;0.43;;
9364;SDS011;4722;49.340;9.800;2023-05-10T00:21:29;0.98;;;0.40;;
9364;SDS011;4722;49.340;9.800;2023-05-10T00:23:55;1.83;;;0.50;;
9364;SDS011;4722;49.340;9.800;2023-05-10T00:26:21;1.33;;;0.63;;
9364;SDS011;4722;49.340;9.800;2023-05-10T00:28:47;0.45;;;0.28;;
9364;SDS011;4722;49.340;9.800;2023-05-10T00:31:14;1.02;;;0.45;;
9364;SDS011;4722;49.340;9.800;2023-05-10T00:33:40;0.35;;;0.20;;
9364;SDS011;4722;49.340;9.800;2023-05-10T00:36:06;0.47;;;0.30;;
9364;SDS011;4722;49.340;9.800;2023-05-10T00:38:33;0.57;;;0.32;;
9364;SDS011;4722;49.340;9.800;2023-05-10T00:40:58;0.73;;;0.35;;
9364;SDS011;4722;49.340;9.800;2023-05-10T00:43:24;0.68;;;0.40;;
9364;SDS011;4722;49.340;9.800;2023-05-10T00:45:50;1.55;;;0.52;;
9364;SDS011;4722;49.340;9.800;2023-05-10T00:48:16;1.10;;;0.40;;
9364;SDS011;4722;49.340;9.800;2023-05-10T00:50:43;0.73;;;0.40;;
9364;SDS011;4722;49.340;9.800;2023-05-10T00:53:09;0.60;;;0.20;;
9364;SDS011;4722;49.340;9.800;2023-05-10T00:55:35;1.00;;;0.43;;
9364;SDS011;4722;49.340;9.800;2023-05-10T00:58:02;1.23;;;0.30;;
9364;SDS011;4722;49.340;9.800;2023-05-10T01:00:28;1.20;;;0.30;;
9364;SDS011;4722;49.340;9.800;2023-05-10T01:02:54;1.02;;;0.30;;
9364;SDS011;4722;49.340;9.800;2023-05-10T01:05:20;0.80;;;0.40;;
9364;SDS011;4722;49.340;9.800;2023-05-10T01:07:46;0.55;;;0.32;;
9364;SDS011;4722;49.340;9.800;2023-05-10T01:10:13;0.40;;;0.30;;
9364;SDS011;4722;49.340;9.800;2023-05-10T01:12:39;2.00;;;0.52;;
9364;SDS011;4722;49.340;9.800;2023-05-10T01:15:09;0.82;;;0.40;;
9364;SDS011;4722;49.340;9.800;2023-05-10T01:17:37;1.05;;;0.30;;
9364;SDS011;4722;49.340;9.800;2023-05-10T01:20:03;0.52;;;0.30;;
9364;SDS011;4722;49.340;9.800;2023-05-10T01:35:40;1.33;;;0.20;;
9364;SDS011;4722;49.340;9.800;2023-05-10T01:38:09;0.40;;;0.20;;
9364;SDS011;4722;49.340;9.800;2023-05-10T01:40:37;0.32;;;0.20;;
9364;SDS011;4722;49.340;9.800;2023-05-10T01:43:11;0.43;;;0.10;;
9364;SDS011;4722;49.340;9.800;2023-05-10T01:45:49;0.40;;;0.32;;
9364;SDS011;4722;49.340;9.800;2023-05-10T01:48:16;2.35;;;0.32;;
9364;SDS011;4722;49.340;9.800;2023-05-10T01:50:45;0.38;;;0.13;;
9364;SDS011;4722;49.340;9.800;2023-05-10T01:53:12;0.50;;;0.20;;
9364;SDS011;4722;49.340;9.800;2023-05-10T01:55:41;0.20;;;0.10;;
9364;SDS011;4722;49.340;9.800;2023-05-10T01:58:10;0.98;;;0.95;;
9364;SDS011;4722;49.340;9.800;2023-05-10T02:00:47;0.15;;;0.10;;
9364;SDS011;4722;49.340;9.800;2023-05-10T02:03:15;0.45;;;0.20;;
9364;SDS011;4722;49.340;9.800;2023-05-10T02:05:41;0.47;;;0.20;;
9364;SDS011;4722;49.340;9.800;2023-05-10T02:08:10;5.78;;;0.22;;
9364;SDS011;4722;49.340;9.800;2023-05-10T02:10:36;0.15;;;0.13;;
9364;SDS011;4722;49.340;9.800;2023-05-10T02:13:03;0.13;;;0.10;;
9364;SDS011;4722;49.340;9.800;2023-05-10T02:15:29;0.38;;;0.17;;
9364;SDS011;4722;49.340;9.800;2023-05-10T02:17:57;0.57;;;0.38;;
9364;SDS011;4722;49.340;9.800;2023-05-10T02:20:24;0.65;;;0.30;;
9364;SDS011;4722;49.340;9.800;2023-05-10T02:22:50;1.65;;;0.50;;
9364;SDS011;4722;49.340;9.800;2023-05-10T02:25:17;0.73;;;0.30;;
9364;SDS011;4722;49.340;9.800;2023-05-10T02:27:44;0.63;;;0.20;;
9364;SDS011;4722;49.340;9.800;2023-05-10T02:30:12;0.43;;;0.20;;
9364;SDS011;4722;49.340;9.800;2023-05-10T02:32:38;0.30;;;0.30;;
9364;SDS011;4722;49.340;9.800;2023-05-10T02:35:05;0.32;;;0.25;;
9364;SDS011;4722;49.340;9.800;2023-05-10T02:37:31;0.70;;;0.30;;
9364;SDS011;4722;49.340;9.800;2023-05-10T02:39:58;0.45;;;0.20;;
9364;SDS011;4722;49.340;9.800;2023-05-10T02:42:25;0.43;;;0.20;;
9364;SDS011;4722;49.340;9.800;2023-05-10T02:44:53;0.30;;;0.10;;
9364;SDS011;4722;49.340;9.800;2023-05-10T02:47:19;0.15;;;0.15;;
9364;SDS011;4722;49.340;9.800;2023-05-10T02:49:46;0.13;;;0.13;;
9364;SDS011;4722;49.340;9.800;2023-05-10T02:52:12;0.55;;;0.30;;
9364;SDS011;4722;49.340;9.800;2023-05-10T02:54:45;0.22;;;0.10;;
9364;SDS011;4722;49.340;9.800;2023-05-10T02:57:14;0.52;;;0.28;;
9364;SDS011;4722;49.340;9.800;2023-05-10T02:59:41;0.47;;;0.20;;
9364;SDS011;4722;49.340;9.800;2023-05-10T03:02:10;0.38;;;0.20;;
9364;SDS011;4722;49.340;9.800;2023-05-10T03:04:37;0.30;;;0.20;;
9364;SDS011;4722;49.340;9.800;2023-05-10T03:07:03;0.60;;;0.40;;
9364;SDS011;4722;49.340;9.800;2023-05-10T03:09:29;0.45;;;0.30;;
9364;SDS011;4722;49.340;9.800;2023-05-10T03:12:07;1.17;;;0.68;;
9364;SDS011;4722;49.340;9.800;2023-05-10T03:14:40;0.98;;;0.50;;
9364;SDS011;4722;49.340;9.800;2023-05-10T03:22:24;0.30;;;0.25;;
9364;SDS011;4722;49.340;9.800;2023-05-10T03:24:55;0.90;;;0.40;;
9364;SDS011;4722;49.340;9.800;2023-05-10T03:27:25;0.88;;;0.30;;
9364;SDS011;4722;49.340;9.800;2023-05-10T03:29:52;0.70;;;0.50;;
9364;SDS011;4722;49.340;9.800;2023-05-10T03:32:19;1.50;;;0.50;;
9364;SDS011;4722;49.340;9.800;2023-05-10T03:34:45;3.50;;;0.57;;
9364;SDS011;4722;49.340;9.800;2023-05-10T03:37:11;0.90;;;0.57;;
9364;SDS011;4722;49.340;9.800;2023-05-10T03:39:37;1.05;;;0.70;;
9364;SDS011;4722;49.340;9.800;2023-05-10T03:42:03;3.00;;;1.95;;
9364;SDS011;4722;49.340;9.800;2023-05-10T03:44:29;1.55;;;1.00;;
9364;SDS011;4722;49.340;9.800;2023-05-10T03:46:55;3.22;;;0.60;;
9364;SDS011;4722;49.340;9.800;2023-05-10T03:49:21;0.60;;;0.50;;
9364;SDS011;4722;49.340;9.800;2023-05-10T03:51:47;1.45;;;1.00;;
9364;SDS011;4722;49.340;9.800;2023-05-10T03:54:13;3.30;;;0.68;;
9364;SDS011;4722;49.340;9.800;2023-05-10T03:56:39;1.67;;;0.88;;
9364;SDS011;4722;49.340;9.800;2023-05-10T03:59:05;1.42;;;0.80;;
9364;SDS011;4722;49.340;9.800;2023-05-10T04:01:33;1.17;;;0.93;;
9364;SDS011;4722;49.340;9.800;2023-05-10T04:03:58;1.73;;;1.08;;
9364;SDS011;4722;49.340;9.800;2023-05-10T04:06:25;1.08;;;0.77;;
9364;SDS011;4722;49.340;9.800;2023-05-10T04:08:51;2.17;;;1.05;;
9364;SDS011;4722;49.340;9.800;2023-05-10T04:11:16;1.60;;;1.02;;
9364;SDS011;4722;49.340;9.800;2023-05-10T04:13:42;2.78;;;1.10;;
9364;SDS011;4722;49.340;9.800;2023-05-10T04:16:08;2.60;;;1.05;;
9364;SDS011;4722;49.340;9.800;2023-05-10T04:18:34;1.67;;;1.00;;
9364;SDS011;4722;49.340;9.800;2023-05-10T04:21:00;1.90;;;1.05;;
9364;SDS011;4722;49.340;9.800;2023-05-10T04:23:29;1.13;;;0.63;;
9364;SDS011;4722;49.340;9.800;2023-05-10T04:26:01;1.42;;;0.85;;
9364;SDS011;4722;49.340;9.800;2023-05-10T04:28:27;2.53;;;1.48;;
9364;SDS011;4722;49.340;9.800;2023-05-10T04:30:53;1.42;;;0.80;;
9364;SDS011;4722;49.340;9.800;2023-05-10T04:33:19;0.82;;;0.60;;
9364;SDS011;4722;49.340;9.800;2023-05-10T04:35:45;1.27;;;0.80;;
9364;SDS011;4722;49.340;9.800;2023-05-10T04:38:11;1.35;;;0.68;;
9364;SDS011;4722;49.340;9.800;2023-05-10T04:40:37;1.88;;;0.80;;
9364;SDS011;4722;49.340;9.800;2023-05-10T04:43:03;2.28;;;1.20;;
9364;SDS011;4722;49.340;9.800;2023-05-10T04:45:29;2.95;;;1.33;;
9364;SDS011;4722;49.340;9.800;2023-05-10T04:47:55;2.70;;;1.25;;
9364;SDS011;4722;49.340;9.800;2023-05-10T04:50:21;1.48;;;1.00;;
9364;SDS011;4722;49.340;9.800;2023-05-10T04:52:47;1.55;;;1.20;;
9364;SDS011;4722;49.340;9.800;2023-05-10T04:55:13;2.28;;;0.98;;
9364;SDS011;4722;49.340;9.800;2023-05-10T04:57:39;2.20;;;1.08;;
9364;SDS011;4722;49.340;9.800;2023-05-10T05:00:05;2.33;;;1.25;;
9364;SDS011;4722;49.340;9.800;2023-05-10T05:02:31;1.88;;;1.23;;
9364;SDS011;4722;49.340;9.800;2023-05-10T05:04:57;2.00;;;1.20;;
9364;SDS011;4722;49.340;9.800;2023-05-10T05:07:23;2.05;;;1.33;;
9364;SDS011;4722;49.340;9.800;2023-05-10T05:09:49;1.58;;;0.88;;
9364;SDS011;4722;49.340;9.800;2023-05-10T05:12:15;4.57;;;0.98;;
9364;SDS011;4722;49.340;9.800;2023-05-10T05:14:41;1.60;;;0.98;;
9364;SDS011;4722;49.340;9.800;2023-05-10T05:17:07;1.85;;;1.00;;
9364;SDS011;4722;49.340;9.800;2023-05-10T05:19:33;1.35;;;0.93;;
9364;SDS011;4722;49.340;9.800;2023-05-10T05:21:59;2.00;;;1.00;;
9364;SDS011;4722;49.340;9.800;2023-05-10T05:24:25;1.58;;;1.25;;
9364;SDS011;4722;49.340;9.800;2023-05-10T05:26:51;1.52;;;1.15;;
9364;SDS011;4722;49.340;9.800;2023-05-10T05:29:16;1.50;;;0.98;;
9364;SDS011;4722;49.340;9.800;2023-05-10T05:31:42;2.25;;;1.27;;
9364;SDS011;4722;49.340;9.800;2023-05-10T05:34:08;1.88;;;1.08;;
9364;SDS011;4722;49.340;9.800;2023-05-10T05:36:35;1.63;;;0.90;;
9364;SDS011;4722;49.340;9.800;2023-05-10T05:39:03;2.25;;;1.55;;
9364;SDS011;4722;49.340;9.800;2023-05-10T05:41:28;1.58;;;0.90;;
9364;SDS011;4722;49.340;9.800;2023-05-10T05:43:54;1.67;;;1.02;;
9364;SDS011;4722;49.340;9.800;2023-05-10T05:46:20;2.40;;;1.10;;
9364;SDS011;4722;49.340;9.800;2023-05-10T05:48:46;1.67;;;1.15;;
9364;SDS011;4722;49.340;9.800;2023-05-10T05:51:12;2.20;;;1.33;;
9364;SDS011;4722;49.340;9.800;2023-05-10T05:53:38;2.63;;;1.73;;
9364;SDS011;4722;49.340;9.800;2023-05-10T05:56:04;1.52;;;1.20;;
9364;SDS011;4722;49.340;9.800;2023-05-10T05:58:30;3.20;;;1.80;;
9364;SDS011;4722;49.340;9.800;2023-05-10T06:00:56;1.30;;;0.90;;
9364;SDS011;4722;49.340;9.800;2023-05-10T06:03:22;2.28;;;1.02;;
9364;SDS011;4722;49.340;9.800;2023-05-10T06:05:49;5.15;;;0.90;;
9364;SDS011;4722;49.340;9.800;2023-05-10T06:08:15;1.58;;;0.90;;
9364;SDS011;4722;49.340;9.800;2023-05-10T06:10:41;2.22;;;1.10;;
9364;SDS011;4722;49.340;9.800;2023-05-10T06:13:07;1.90;;;0.88;;
9364;SDS011;4722;49.340;9.800;2023-05-10T06:15:33;2.22;;;1.23;;
9364;SDS011;4722;49.340;9.800;2023-05-10T06:17:59;0.95;;;0.60;;
9364;SDS011;4722;49.340;9.800;2023-05-10T06:20:25;1.25;;;0.80;;
9364;SDS011;4722;49.340;9.800;2023-05-10T06:22:51;1.35;;;0.68;;
9364;SDS011;4722;49.340;9.800;2023-05-10T06:25:17;1.13;;;0.73;;
9364;SDS011;4722;49.340;9.800;2023-05-10T06:27:44;1.20;;;0.63;;
9364;SDS011;4722;49.340;9.800;2023-05-10T06:30:09;1.58;;;0.73;;
9364;SDS011;4722;49.340;9.800;2023-05-10T06:32:36;0.88;;;0.47;;
9364;SDS011;4722;49.340;9.800;2023-05-10T06:35:02;1.00;;;0.75;;
9364;SDS011;4722;49.340;9.800;2023-05-10T06:37:28;1.15;;;0.63;;
9364;SDS011;4722;49.340;9.800;2023-05-10T06:39:54;1.63;;;0.80;;
9364;SDS011;4722;49.340;9.800;2023-05-10T06:42:20;4.22;;;0.40;;
9364;SDS011;4722;49.340;9.800;2023-05-10T06:44:46;0.80;;;0.50;;
9364;SDS011;4722;49.340;9.800;2023-05-10T06:47:12;4.32;;;0.77;;
9364;SDS011;4722;49.340;9.800;2023-05-10T06:49:38;1.20;;;0.50;;
9364;SDS011;4722;49.340;9.800;2023-05-10T06:52:04;1.65;;;0.68;;
9364;SDS011;4722;49.340;9.800;2023-05-10T06:54:30;3.72;;;0.75;;
9364;SDS011;4722;49.340;9.800;2023-05-10T06:56:56;2.70;;;0.63;;
9364;SDS011;4722;49.340;9.800;2023-05-10T06:59:22;1.20;;;0.80;;
9364;SDS011;4722;49.340;9.800;2023-05-10T07:01:49;1.77;;;0.82;;
9364;SDS011;4722;49.340;9.800;2023-05-10T07:04:15;0.95;;;0.60;;
9364;SDS011;4722;49.340;9.800;2023-05-10T07:06:42;1.63;;;0.80;;
9364;SDS011;4722;49.340;9.800;2023-05-10T07:09:08;1.25;;;0.80;;
9364;SDS011;4722;49.340;9.800;2023-05-10T07:11:34;1.48;;;0.80;;
9364;SDS011;4722;49.340;9.800;2023-05-10T07:14:02;1.02;;;0.70;;
9364;SDS011;4722;49.340;9.800;2023-05-10T07:16:28;2.05;;;0.90;;
9364;SDS011;4722;49.340;9.800;2023-05-10T07:18:54;2.50;;;1.00;;
9364;SDS011;4722;49.340;9.800;2023-05-10T07:21:20;3.28;;;1.15;;
9364;SDS011;4722;49.340;9.800;2023-05-10T07:23:48;2.90;;;1.10;;
9364;SDS011;4722;49.340;9.800;2023-05-10T07:26:15;1.15;;;0.70;;
9364;SDS011;4722;49.340;9.800;2023-05-10T07:28:41;1.70;;;0.70;;
9364;SDS011;4722;49.340;9.800;2023-05-10T07:31:07;1.60;;;0.70;;
9364;SDS011;4722;49.340;9.800;2023-05-10T07:33:33;1.13;;;0.52;;
9364;SDS011;4722;49.340;9.800;2023-05-10T07:35:59;0.93;;;0.50;;
9364;SDS011;4722;49.340;9.800;2023-05-10T07:38:25;0.90;;;0.40;;
9364;SDS011;4722;49.340;9.800;2023-05-10T07:40:51;1.38;;;0.60;;
9364;SDS011;4722;49.340;9.800;2023-05-10T07:43:17;4.53;;;1.27;;
9364;SDS011;4722;49.340;9.800;2023-05-10T07:45:43;4.93;;;0.90;;
9364;SDS011;4722;49.340;9.800;2023-05-10T07:48:09;1.50;;;0.93;;
9364;SDS011;4722;49.340;9.800;2023-05-10T07:50:35;1.52;;;0.90;;
9364;SDS011;4722;49.340;9.800;2023-05-10T07:53:01;1.83;;;0.80;;
9364;SDS011;4722;49.340;9.800;2023-05-10T07:55:27;1.58;;;0.95;;
9364;SDS011;4722;49.340;9.800;2023-05-10T07:57:53;4.57;;;0.82;;
9364;SDS011;4722;49.340;9.800;2023-05-10T08:00:19;1.67;;;0.98;;
9364;SDS011;4722;49.340;9.800;2023-05-10T08:02:45;0.95;;;0.60;;
9364;SDS011;4722;49.340;9.800;2023-05-10T08:05:11;2.08;;;1.20;;
9364;SDS011;4722;49.340;9.800;2023-05-10T08:07:38;2.10;;;0.70;;
9364;SDS011;4722;49.340;9.800;2023-05-10T08:10:04;1.45;;;0.73;;
9364;SDS011;4722;49.340;9.800;2023-05-10T08:12:30;1.02;;;0.60;;
9364;SDS011;4722;49.340;9.800;2023-05-10T08:14:56;1.42;;;0.65;;
9364;SDS011;4722;49.340;9.800;2023-05-10T08:17:22;1.55;;;0.57;;
9364;SDS011;4722;49.340;9.800;2023-05-10T08:19:48;2.97;;;0.73;;
9364;SDS011;4722;49.340;9.800;2023-05-10T08:22:14;1.23;;;0.80;;
9364;SDS011;4722;49.340;9.800;2023-05-10T08:24:40;1.38;;;0.65;;
9364;SDS011;4722;49.340;9.800;2023-05-10T08:27:07;1.35;;;0.60;;
9364;SDS011;4722;49.340;9.800;2023-05-10T08:29:33;1.13;;;0.50;;
9364;SDS011;4722;49.340;9.800;2023-05-10T08:31:59;1.90;;;0.50;;
9364;SDS011;4722;49.340;9.800;2023-05-10T08:34:26;1.45;;;0.77;;
9364;SDS011;4722;49.340;9.800;2023-05-10T08:36:52;0.57;;;0.40;;
9364;SDS011;4722;49.340;9.800;2023-05-10T08:39:17;1.23;;;0.68;;
9364;SDS011;4722;49.340;9.800;2023-05-10T08:41:44;1.10;;;0.68;;
9364;SDS011;4722;49.340;9.800;2023-05-10T08:44:11;3.50;;;0.55;;
9364;SDS011;4722;49.340;9.800;2023-05-10T08:46:37;0.98;;;0.63;;
9364;SDS011;4722;49.340;9.800;2023-05-10T08:49:09;3.50;;;0.40;;
9364;SDS011;4722;49.340;9.800;2023-05-10T08:54:07;3.05;;;0.30;;
9364;SDS011;4722;49.340;9.800;2023-05-10T08:56:33;1.08;;;0.57;;
9364;SDS011;4722;49.340;9.800;2023-05-10T08:58:59;1.25;;;0.50;;
9364;SDS011;4722;49.340;9.800;2023-05-10T09:01:26;0.73;;;0.47;;
9364;SDS011;4722;49.340;9.800;2023-05-10T09:03:52;3.00;;;1.33;;
9364;SDS011;4722;49.340;9.800;2023-05-10T09:06:18;1.08;;;0.40;;
9364;SDS011;4722;49.340;9.800;2023-05-10T09:08:44;0.80;;;0.40;;
9364;SDS011;4722;49.340;9.800;2023-05-10T09:11:11;0.75;;;0.50;;
9364;SDS011;4722;49.340;9.800;2023-05-10T09:13:37;0.98;;;0.65;;
9364;SDS011;4722;49.340;9.800;2023-05-10T09:16:03;1.25;;;0.60;;
9364;SDS011;4722;49.340;9.800;2023-05-10T09:18:30;1.05;;;0.65;;
9364;SDS011;4722;49.340;9.800;2023-05-10T09:20:56;1.23;;;0.73;;
9364;SDS011;4722;49.340;9.800;2023-05-10T09:23:22;1.35;;;0.77;;
9364;SDS011;4722;49.340;9.800;2023-05-10T09:26:01;2.78;;;0.73;;
9364;SDS011;4722;49.340;9.800;2023-05-10T09:28:33;0.90;;;0.50;;
9364;SDS011;4722;49.340;9.800;2023-05-10T09:31:14;1.30;;;0.60;;
9364;SDS011;4722;49.340;9.800;2023-05-10T09:33:44;1.73;;;0.90;;
9364;SDS011;4722;49.340;9.800;2023-05-10T09:36:11;1.42;;;0.68;;
9364;SDS011;4722;49.340;9.800;2023-05-10T09:38:47;2.40;;;1.35;;
9364;SDS011;4722;49.340;9.800;2023-05-10T09:41:18;1.73;;;0.98;;
9364;SDS011;4722;49.340;9.800;2023-05-10T09:43:45;2.35;;;1.15;;
9364;SDS011;4722;49.340;9.800;2023-05-10T09:46:11;1.40;;;0.80;;
9364;SDS011;4722;49.340;9.800;2023-05-10T09:48:41;2.40;;;1.23;;
9364;SDS011;4722;49.340;9.800;2023-05-10T09:51:08;2.10;;;0.90;;
9364;SDS011;4722;49.340;9.800;2023-05-10T09:53:34;1.50;;;0.68;;
9364;SDS011;4722;49.340;9.800;2023-05-10T09:56:00;3.42;;;0.55;;
9364;SDS011;4722;49.340;9.800;2023-05-10T09:58:26;1.25;;;0.43;;
9364;SDS011;4722;49.340;9.800;2023-05-10T10:00:52;0.43;;;0.32;;
9364;SDS011;4722;49.340;9.800;2023-05-10T10:03:21;0.98;;;0.52;;
9364;SDS011;4722;49.340;9.800;2023-05-10T10:05:48;1.88;;;0.60;;
9364;SDS011;4722;49.340;9.800;2023-05-10T10:08:14;2.13;;;0.60;;
9364;SDS011;4722;49.340;9.800;2023-05-10T10:10:40;1.25;;;0.50;;
9364;SDS011;4722;49.340;9.800;2023-05-10T10:13:09;0.70;;;0.38;;
9364;SDS011;4722;49.340;9.800;2023-05-10T10:15:35;0.80;;;0.55;;
9364;SDS011;4722;49.340;9.800;2023-05-10T10:18:01;1.48;;;0.50;;
9364;SDS011;4722;49.340;9.800;2023-05-10T10:20:29;0.52;;;0.32;;
9364;SDS011;4722;49.340;9.800;2023-05-10T10:22:55;0.98;;;0.40;;
9364;SDS011;4722;49.340;9.800;2023-05-10T10:25:21;2.05;;;1.10;;
9364;SDS011;4722;49.340;9.800;2023-05-10T10:36:12;0.85;;;0.30;;
9364;SDS011;4722;49.340;9.800;2023-05-10T10:50:22;1.13;;;0.30;;
9364;SDS011;4722;49.340;9.800;2023-05-10T10:52:23;0.65;;;0.30;;
9364;SDS011;4722;49.340;9.800;2023-05-10T10:55:03;0.32;;;0.20;;
9364;SDS011;4722;49.340;9.800;2023-05-10T10:57:32;1.13;;;0.30;;
9364;SDS011;4722;49.340;9.800;2023-05-10T11:02:55;1.95;;;0.85;;
9364;SDS011;4722;49.340;9.800;2023-05-10T11:07:54;1.02;;;0.20;;
9364;SDS011;4722;49.340;9.800;2023-05-10T11:10:22;0.90;;;0.50;;
9364;SDS011;4722;49.340;9.800;2023-05-10T11:15:33;0.50;;;0.20;;
9364;SDS011;4722;49.340;9.800;2023-05-10T11:18:19;0.73;;;0.20;;
9364;SDS011;4722;49.340;9.800;2023-05-10T11:20:52;0.40;;;0.20;;
9364;SDS011;4722;49.340;9.800;2023-05-10T11:23:32;0.40;;;0.20;;
9364;SDS011;4722;49.340;9.800;2023-05-10T11:25:59;0.47;;;0.20;;
9364;SDS011;4722;49.340;9.800;2023-05-10T11:28:26;0.55;;;0.35;;
9364;SDS011;4722;49.340;9.800;2023-05-10T11:30:53;0.45;;;0.30;;
9364;SDS011;4722;49.340;9.800;2023-05-10T11:33:19;1.35;;;0.30;;
9364;SDS011;4722;49.340;9.800;2023-05-10T11:35:46;0.47;;;0.28;;
9364;SDS011;4722;49.340;9.800;2023-05-10T11:38:12;3.90;;;0.20;;
9364;SDS011;4722;49.340;9.800;2023-05-10T11:40:38;0.30;;;0.10;;
9364;SDS011;4722;49.340;9.800;2023-05-10T11:43:05;1.75;;;0.20;;
9364;SDS011;4722;49.340;9.800;2023-05-10T11:45:34;1.40;;;0.30;;
9364;SDS011;4722;49.340;9.800;2023-05-10T11:48:00;0.30;;;0.22;;
9364;SDS011;4722;49.340;9.800;2023-05-10T11:50:27;0.20;;;0.17;;
9364;SDS011;4722;49.340;9.800;2023-05-10T11:52:53;0.88;;;0.20;;
9364;SDS011;4722;49.340;9.800;2023-05-10T11:55:20;2.40;;;0.47;;
9364;SDS011;4722;49.340;9.800;2023-05-10T11:57:46;1.85;;;0.80;;
9364;SDS011;4722;49.340;9.800;2023-05-10T12:00:13;0.60;;;0.22;;
9364;SDS011;4722;49.340;9.800;2023-05-10T12:02:39;1.52;;;0.55;;
9364;SDS011;4722;49.340;9.800;2023-05-10T12:05:05;0.90;;;0.20;;
9364;SDS011;4722;49.340;9.800;2023-05-10T12:07:32;0.28;;;0.20;;
9364;SDS011;4722;49.340;9.800;2023-05-10T12:10:08;1.58;;;0.20;;
9364;SDS011;4722;49.340;9.800;2023-05-10T12:12:40;0.35;;;0.20;;
9364;SDS011;4722;49.340;9.800;2023-05-10T12:15:10;0.75;;;0.40;;
9364;SDS011;4722;49.340;9.800;2023-05-10T12:17:37;0.70;;;0.30;;
9364;SDS011;4722;49.340;9.800;2023-05-10T12:20:17;0.77;;;0.30;;
9364;SDS011;4722;49.340;9.800;2023-05-10T12:22:47;1.25;;;0.38;;
9364;SDS011;4722;49.340;9.800;2023-05-10T12:25:13;0.75;;;0.40;;
9364;SDS011;4722;49.340;9.800;2023-05-10T12:27:39;1.00;;;0.45;;
9364;SDS011;4722;49.340;9.800;2023-05-10T12:30:05;0.35;;;0.20;;
9364;SDS011;4722;49.340;9.800;2023-05-10T12:32:41;0.50;;;0.30;;
9364;SDS011;4722;49.340;9.800;2023-05-10T12:35:07;2.00;;;0.30;;
9364;SDS011;4722;49.340;9.800;2023-05-10T12:37:33;0.88;;;0.38;;
9364;SDS011;4722;49.340;9.800;2023-05-10T12:40:04;0.88;;;0.50;;
9364;SDS011;4722;49.340;9.800;2023-05-10T12:42:31;0.20;;;0.20;;
9364;SDS011;4722;49.340;9.800;2023-05-10T12:44:57;0.57;;;0.20;;
9364;SDS011;4722;49.340;9.800;2023-05-10T12:47:23;4.70;;;0.55;;
9364;SDS011;4722;49.340;9.800;2023-05-10T12:49:49;0.95;;;0.40;;
9364;SDS011;4722;49.340;9.800;2023-05-10T12:52:16;1.75;;;0.32;;
9364;SDS011;4722;49.340;9.800;2023-05-10T12:54:42;1.10;;;0.30;;
9364;SDS011;4722;49.340;9.800;2023-05-10T12:57:08;0.63;;;0.17;;
9364;SDS011;4722;49.340;9.800;2023-05-10T12:59:33;5.28;;;0.20;;
9364;SDS011;4722;49.340;9.800;2023-05-10T13:02:00;0.63;;;0.30;;
9364;SDS011;4722;49.340;9.800;2023-05-10T13:04:26;1.00;;;0.40;;
9364;SDS011;4722;49.340;9.800;2023-05-10T13:06:52;0.82;;;0.30;;
9364;SDS011;4722;49.340;9.800;2023-05-10T13:09:21;3.50;;;0.20;;
9364;SDS011;4722;49.340;9.800;2023-05-10T13:11:47;0.73;;;0.30;;
9364;SDS011;4722;49.340;9.800;2023-05-10T13:14:14;1.50;;;0.30;;
9364;SDS011;4722;49.340;9.800;2023-05-10T13:16:40;0.80;;;0.65;;
9364;SDS011;4722;49.340;9.800;2023-05-10T13:19:06;0.50;;;0.20;;
9364;SDS011;4722;49.340;9.800;2023-05-10T13:21:31;1.17;;;0.30;;
9364;SDS011;4722;49.340;9.800;2023-05-10T13:23:57;0.13;;;0.13;;
9364;SDS011;4722;49.340;9.800;2023-05-10T13:26:23;0.22;;;0.22;;
9364;SDS011;4722;49.340;9.800;2023-05-10T13:28:50;0.88;;;0.30;;
9364;SDS011;4722;49.340;9.800;2023-05-10T13:31:16;0.55;;;0.10;;
9364;SDS011;4722;49.340;9.800;2023-05-10T13:33:42;0.30;;;0.10;;
9364;SDS011;4722;49.340;9.800;2023-05-10T13:36:08;0.38;;;0.28;;
9364;SDS011;4722;49.340;9.800;2023-05-10T13:38:34;0.75;;;0.22;;
9364;SDS011;4722;49.340;9.800;2023-05-10T13:41:00;1.13;;;0.25;;
9364;SDS011;4722;49.340;9.800;2023-05-10T13:43:26;0.75;;;0.35;;
9364;SDS011;4722;49.340;9.800;2023-05-10T13:45:52;0.50;;;0.28;;
9364;SDS011;4722;49.340;9.800;2023-05-10T13:48:18;0.50;;;0.30;;
9364;SDS011;4722;49.340;9.800;2023-05-10T13:50:44;0.52;;;0.32;;
9364;SDS011;4722;49.340;9.800;2023-05-10T13:53:11;0.30;;;0.20;;
9364;SDS011;4722;49.340;9.800;2023-05-10T13:55:37;0.50;;;0.30;;
9364;SDS011;4722;49.340;9.800;2023-05-10T13:58:03;0.30;;;0.20;;
9364;SDS011;4722;49.340;9.800;2023-05-10T14:00:29;1.17;;;0.40;;
9364;SDS011;4722;49.340;9.800;2023-05-10T14:02:55;0.95;;;0.20;;
9364;SDS011;4722;49.340;9.800;2023-05-10T14:05:21;0.40;;;0.22;;
9364;SDS011;4722;49.340;9.800;2023-05-10T14:07:48;0.88;;;0.40;;
9364;SDS011;4722;49.340;9.800;2023-05-10T14:10:14;3.90;;;0.50;;
9364;SDS011;4722;49.340;9.800;2023-05-10T14:12:40;0.80;;;0.30;;
9364;SDS011;4722;49.340;9.800;2023-05-10T14:15:06;3.40;;;0.47;;
9364;SDS011;4722;49.340;9.800;2023-05-10T14:17:32;1.88;;;0.35;;
9364;SDS011;4722;49.340;9.800;2023-05-10T14:19:58;3.13;;;0.40;;
9364;SDS011;4722;49.340;9.800;2023-05-10T14:22:24;1.40;;;0.40;;
9364;SDS011;4722;49.340;9.800;2023-05-10T14:24:49;0.95;;;0.32;;
9364;SDS011;4722;49.340;9.800;2023-05-10T14:27:15;1.63;;;1.17;;
9364;SDS011;4722;49.340;9.800;2023-05-10T14:29:41;2.72;;;0.22;;
9364;SDS011;4722;49.340;9.800;2023-05-10T14:32:07;1.05;;;0.40;;
9364;SDS011;4722;49.340;9.800;2023-05-10T14:34:33;1.05;;;0.47;;
9364;SDS011;4722;49.340;9.800;2023-05-10T14:36:59;1.95;;;0.22;;
9364;SDS011;4722;49.340;9.800;2023-05-10T14:39:25;0.75;;;0.30;;
9364;SDS011;4722;49.340;9.800;2023-05-10T14:41:54;0.50;;;0.10;;
9364;SDS011;4722;49.340;9.800;2023-05-10T14:44:20;0.40;;;0.20;;
9364;SDS011;4722;49.340;9.800;2023-05-10T14:46:46;2.20;;;0.20;;
9364;SDS011;4722;49.340;9.800;2023-05-10T14:49:13;1.05;;;0.30;;
9364;SDS011;4722;49.340;9.800;2023-05-10T14:51:39;0.40;;;0.15;;
9364;SDS011;4722;49.340;9.800;2023-05-10T14:54:05;0.63;;;0.20;;
9364;SDS011;4722;49.340;9.800;2023-05-10T14:56:31;0.38;;;0.20;;
9364;SDS011;4722;49.340;9.800;2023-05-10T14:58:57;0.13;;;0.10;;
9364;SDS011;4722;49.340;9.800;2023-05-10T15:01:24;1.00;;;0.30;;
9364;SDS011;4722;49.340;9.800;2023-05-10T15:03:50;1.40;;;0.30;;
9364;SDS011;4722;49.340;9.800;2023-05-10T15:06:16;1.75;;;0.30;;
9364;SDS011;4722;49.340;9.800;2023-05-10T15:08:42;2.22;;;0.40;;
9364;SDS011;4722;49.340;9.800;2023-05-10T15:11:08;0.55;;;0.35;;
9364;SDS011;4722;49.340;9.800;2023-05-10T15:13:34;0.40;;;0.17;;
9364;SDS011;4722;49.340;9.800;2023-05-10T15:16:00;1.75;;;0.28;;
9364;SDS011;4722;49.340;9.800;2023-05-10T15:18:27;0.95;;;0.40;;
9364;SDS011;4722;49.340;9.800;2023-05-10T15:20:53;0.43;;;0.20;;
9364;SDS011;4722;49.340;9.800;2023-05-10T15:23:20;0.77;;;0.30;;
9364;SDS011;4722;49.340;9.800;2023-05-10T15:25:46;0.88;;;0.20;;
9364;SDS011;4722;49.340;9.800;2023-05-10T15:28:14;0.80;;;0.50;;
9364;SDS011;4722;49.340;9.800;2023-05-10T15:30:40;0.98;;;0.20;;
9364;SDS011;4722;49.340;9.800;2023-05-10T15:33:06;3.83;;;0.52;;
9364;SDS011;4722;49.340;9.800;2023-05-10T15:35:33;0.28;;;0.13;;
9364;SDS011;4722;49.340;9.800;2023-05-10T15:38:00;1.95;;;0.30;;
9364;SDS011;4722;49.340;9.800;2023-05-10T15:40:26;1.17;;;0.30;;
9364;SDS011;4722;49.340;9.800;2023-05-10T15:42:52;0.55;;;0.30;;
9364;SDS011;4722;49.340;9.800;2023-05-10T15:45:18;1.55;;;0.30;;
9364;SDS011;4722;49.340;9.800;2023-05-10T15:47:44;0.73;;;0.40;;
9364;SDS011;4722;49.340;9.800;2023-05-10T15:50:11;0.52;;;0.22;;
9364;SDS011;4722;49.340;9.800;2023-05-10T15:52:37;1.55;;;0.30;;
9364;SDS011;4722;49.340;9.800;2023-05-10T15:55:03;2.05;;;0.50;;
9364;SDS011;4722;49.340;9.800;2023-05-10T16:00:05;0.60;;;0.30;;
9364;SDS011;4722;49.340;9.800;2023-05-10T16:02:32;1.10;;;0.20;;
9364;SDS011;4722;49.340;9.800;2023-05-10T16:04:58;1.42;;;0.60;;